Time;durP1;ratioP1;P1;durP2;ratioP2;P2;SDS_P1;SDS_P2;PMS_P1;PMS_P2;Temp;Humidity;BMP_temperature;BMP_pressure;BME280_temperature;BME280_humidity;BME280_pressure;Samples;Min_cycle;Max_cycle;Signal;HPM_P1;HPM_P2
2021/11/13 00:11:57;;;;;;;66.53;38.65;;;;;;;;;;4135950;34;20033;-72
2021/11/13 00:14:27;;;;;;;72.82;37.75;;;;;;;;;;4214002;33;20038;-72
2021/11/13 00:16:54;;;;;;;67.37;38.67;;;;;;;;;;4285350;32;20057;-72
2021/11/13 00:19:20;;;;;;;62.72;37.38;;;;;;;;;;4370186;32;20065;-72
2021/11/13 00:21:45;;;;;;;;;;;;;;;;;;4376412;32;20337;-71
2021/11/13 00:24:12;;;;;;;64.80;38.63;;;;;;;;;;4375415;32;19938;-72
2021/11/13 00:26:37;;;;;;;59.15;37.58;;;;;;;;;;4383558;32;20037;-72
2021/11/13 00:29:03;;;;;;;;;;;;;;;;;;4406201;32;20128;-72
2021/11/13 00:31:30;;;;;;;71.87;39.95;;;;;;;;;;4405727;32;19941;-72
2021/11/13 00:33:56;;;;;;;67.95;40.12;;;;;;;;;;4405724;32;20513;-72
2021/11/13 00:36:23;;;;;;;;;;;;;;;;;;4406737;32;20026;-72
2021/11/13 00:38:49;;;;;;;77.37;44.13;;;;;;;;;;4405809;32;19938;-71
2021/11/13 00:41:14;;;;;;;;;;;;;;;;;;4405669;32;20076;-72
2021/11/13 00:43:48;;;;;;;79.37;46.25;;;;;;;;;;4405354;32;19981;-72
2021/11/13 00:46:19;;;;;;;80.20;47.72;;;;;;;;;;4405887;32;20114;-72
2021/11/13 00:48:53;;;;;;;85.57;49.25;;;;;;;;;;4405613;32;20114;-72
2021/11/13 00:51:19;;;;;;;87.60;49.13;;;;;;;;;;4405684;32;20057;-72
2021/11/13 00:53:44;;;;;;;;;;;;;;;;;;4405767;32;20398;-72
2021/11/13 00:56:09;;;;;;;78.68;46.83;;;;;;;;;;4391969;32;20284;-72
2021/11/13 00:58:36;;;;;;;;;;;;;;;;;;4419999;32;20370;-72
2021/11/13 01:01:02;;;;;;;97.62;53.25;;;;;;;;;;4419882;32;19957;-73
2021/11/13 01:03:27;;;;;;;;;;;;;;;;;;4420894;32;20067;-71
2021/11/13 01:05:52;;;;;;;96.55;53.65;;;;;;;;;;4419996;32;20297;-72
2021/11/13 01:08:17;;;;;;;;;;;;;;;;;;4422254;32;20079;-71
2021/11/13 01:10:43;;;;;;;104.10;56.03;;;;;;;;;;4421540;32;19944;-71
2021/11/13 01:13:08;;;;;;;;;;;;;;;;;;4436194;32;20061;-70
2021/11/13 01:15:33;;;;;;;89.95;51.25;;;;;;;;;;4436213;32;19944;-71
2021/11/13 01:17:59;;;;;;;;;;;;;;;;;;4436070;32;20104;-71
2021/11/13 01:20:25;;;;;;;86.63;50.95;;;;;;;;;;4421493;32;19940;-72
2021/11/13 01:22:51;;;;;;;93.93;53.35;;;;;;;;;;4435402;32;20090;-71
2021/11/13 01:25:25;;;;;;;;;;;;;;;;;;4436213;32;20101;-71
2021/11/13 01:27:50;;;;;;;88.12;52.05;;;;;;;;;;4435096;32;19960;-71
2021/11/13 01:30:18;;;;;;;;;;;;;;;;;;4436201;32;20332;-71
2021/11/13 01:32:44;;;;;;;86.43;51.45;;;;;;;;;;4421097;32;19933;-71
2021/11/13 01:35:10;;;;;;;85.75;52.25;;;;;;;;;;4436099;32;20065;-71
2021/11/13 01:37:35;;;;;;;;;;;;;;;;;;4436443;32;20082;-71
2021/11/13 01:40:01;;;;;;;86.15;50.15;;;;;;;;;;4435291;32;19944;-71
2021/11/13 01:42:49;;;;;;;81.50;49.72;;;;;;;;;;4435030;32;20041;-71
2021/11/13 01:45:15;;;;;;;100.22;55.17;;;;;;;;;;4420077;32;20046;-71
2021/11/13 01:47:56;;;;;;;92.62;55.10;;;;;;;;;;4420327;32;20363;-71
2021/11/13 01:50:29;;;;;;;96.00;53.33;;;;;;;;;;4410010;32;20438;-72
2021/11/13 01:53:00;;;;;;;84.30;51.30;;;;;;;;;;4405103;32;20049;-71
2021/11/13 01:55:28;;;;;;;82.32;49.03;;;;;;;;;;4405093;32;20030;-71
2021/11/13 01:57:55;;;;;;;79.10;48.22;;;;;;;;;;4404711;32;20412;-71
2021/11/13 02:00:36;;;;;;;78.82;48.60;;;;;;;;;;4405277;32;20056;-71
2021/11/13 02:03:32;;;;;;;82.80;48.70;;;;;;;;;;4404880;32;20120;-71
2021/11/13 02:06:03;;;;;;;82.45;48.03;;;;;;;;;;4418153;32;20029;-71
2021/11/13 02:08:37;;;;;;;68.43;42.95;;;;;;;;;;4420511;32;20029;-71
2021/11/13 02:11:02;;;;;;;70.05;43.10;;;;;;;;;;4420457;32;20365;-71
2021/11/13 02:13:27;;;;;;;;;;;;;;;;;;4421800;32;20082;-72
2021/11/13 02:16:14;;;;;;;;;;;;;;;;;;;;;
2021/11/13 02:18:41;;;;;;;77.22;42.38;;;;;;;;;;4392834;32;20026;-71
2021/11/13 02:21:07;;;;;;;83.93;46.47;;;;;;;;;;4407681;32;20386;-71
2021/11/13 02:23:32;;;;;;;;;;;;;;;;;;4407478;32;20097;-72
2021/11/13 02:26:04;;;;;;;73.35;41.17;;;;;;;;;;4407467;32;19942;-71
2021/11/13 02:28:29;;;;;;;77.25;46.33;;;;;;;;;;4408748;32;20486;-72
2021/11/13 02:30:55;;;;;;;;;;;;;;;;;;4410557;32;20027;-71
2021/11/13 02:33:21;;;;;;;86.63;44.13;;;;;;;;;;4407531;32;19949;-71
2021/11/13 02:35:47;;;;;;;73.15;43.15;;;;;;;;;;4407043;32;20038;-71
2021/11/13 02:38:19;;;;;;;70.10;39.75;;;;;;;;;;4429590;32;20059;-72
2021/11/13 02:40:54;;;;;;;70.40;40.08;;;;;;;;;;4437837;32;20030;-72
2021/11/13 02:43:19;;;;;;;62.50;34.90;;;;;;;;;;4423478;32;20079;-72
2021/11/13 02:45:55;;;;;;;;;;;;;;;;;;4411769;32;20027;-72
2021/11/13 02:48:24;;;;;;;63.80;33.17;;;;;;;;;;4407814;32;19980;-73
2021/11/13 02:50:50;;;;;;;66.10;35.58;;;;;;;;;;4407145;32;20091;-72
2021/11/13 02:53:25;;;;;;;;;;;;;;;;;;;;;
2021/11/13 02:55:52;;;;;;;52.90;31.42;;;;;;;;;;4407431;32;19964;-72
2021/11/13 02:58:25;;;;;;;59.33;34.22;;;;;;;;;;4416669;32;20039;-72
2021/11/13 03:00:54;;;;;;;56.70;32.88;;;;;;;;;;4418639;32;20106;-72
2021/11/13 03:03:29;;;;;;;61.65;33.90;;;;;;;;;;4406260;32;20062;-72
2021/11/13 03:06:07;;;;;;;63.58;33.10;;;;;;;;;;4406363;32;20447;-72
2021/11/13 03:08:42;;;;;;;50.90;32.35;;;;;;;;;;4406968;32;20049;-72
2021/11/13 03:11:12;;;;;;;62.33;33.45;;;;;;;;;;4407148;32;20026;-71
2021/11/13 03:13:39;;;;;;;62.42;33.53;;;;;;;;;;4430363;32;20037;-72
2021/11/13 03:16:14;;;;;;;56.83;32.60;;;;;;;;;;4437080;32;20056;-72
2021/11/13 03:24:43;;;;;;;60.35;34.67;;;;;;;;;;4406538;32;20052;-72
2021/11/13 03:27:08;;;;;;;62.53;33.53;;;;;;;;;;4413994;32;20026;-71
2021/11/13 03:29:41;;;;;;;;;;;;;;;;;;4437894;32;20025;-71
2021/11/13 03:32:06;;;;;;;72.07;33.22;;;;;;;;;;4437833;32;19986;-71
2021/11/13 03:34:33;;;;;;;;;;;;;;;;;;4437066;32;20030;-71
2021/11/13 03:36:58;;;;;;;65.00;35.58;;;;;;;;;;4437011;32;19944;-71
2021/11/13 03:39:23;;;;;;;;;;;;;;;;;;4437359;32;20358;-71
2021/11/13 03:41:51;;;;;;;62.28;32.90;;;;;;;;;;4436640;32;19972;-71
2021/11/13 03:44:17;;;;;;;62.08;34.25;;;;;;;;;;4437428;32;20022;-72
2021/11/13 03:46:42;;;;;;;;;;;;;;;;;;4437505;32;20084;-72
2021/11/13 03:52:12;;;;;;;72.43;33.97;;;;;;;;;;4436736;32;20155;-71
2021/11/13 03:54:49;;;;;;;64.53;34.72;;;;;;;;;;4436547;32;20053;-72
2021/11/13 03:57:14;;;;;;;58.33;33.55;;;;;;;;;;4436909;32;20056;-72
2021/11/13 03:59:39;;;;;;;;;;;;;;;;;;4437213;32;20383;-71
2021/11/13 04:02:08;;;;;;;61.80;31.58;;;;;;;;;;4437609;32;19929;-71
2021/11/13 04:05:08;;;;;;;73.40;35.55;;;;;;;;;;4422499;32;20021;-71
2021/11/13 04:07:49;;;;;;;58.42;32.50;;;;;;;;;;4435467;32;20038;-72
2021/11/13 04:10:39;;;;;;;70.22;36.00;;;;;;;;;;4387983;32;20056;-71
2021/11/13 04:13:06;;;;;;;70.95;38.42;;;;;;;;;;4390820;32;20106;-72
2021/11/13 04:15:31;;;;;;;67.95;34.33;;;;;;;;;;4437005;32;20056;-71
2021/11/13 04:17:57;;;;;;;;;;;;;;;;;;4436923;32;20455;-71
2021/11/13 04:20:57;;;;;;;51.08;30.17;;;;;;;;;;4436062;32;19996;-71
2021/11/13 04:23:22;;;;;;;51.17;27.75;;;;;;;;;;4429647;32;20021;-72
2021/11/13 04:25:47;;;;;;;;;;;;;;;;;;4437006;32;20430;-72
2021/11/13 04:28:13;;;;;;;43.70;25.88;;;;;;;;;;4436001;32;19964;-72
2021/11/13 04:30:38;;;;;;;;;;;;;;;;;;4436526;32;20038;-72
2021/11/13 04:33:06;;;;;;;36.70;20.65;;;;;;;;;;4436121;32;19955;-72
2021/11/13 04:39:04;;;;;;;43.28;25.62;;;;;;;;;;4436085;32;20117;-72
2021/11/13 04:44:28;;;;;;;50.63;26.62;;;;;;;;;;4381212;32;20056;-72
2021/11/13 04:46:53;;;;;;;;;;;;;;;;;;4435785;32;20475;-72
2021/11/13 04:49:19;;;;;;;51.85;26.67;;;;;;;;;;4435369;32;19929;-72
2021/11/13 04:52:02;;;;;;;;;;;;;;;;;;4436102;32;20159;-71
2021/11/13 04:54:33;;;;;;;54.33;29.60;;;;;;;;;;4436176;32;19944;-71
2021/11/13 04:57:28;;;;;;;;;;;;;;;;;;;;;
2021/11/13 04:59:54;;;;;;;51.45;30.17;;;;;;;;;;4435664;32;20067;-72
2021/11/13 05:02:19;;;;;;;;;;;;;;;;;;4422867;32;20061;-71
2021/11/13 05:04:44;;;;;;;53.10;28.40;;;;;;;;;;4423623;32;19941;-71
2021/11/13 05:07:09;;;;;;;;;;;;;;;;;;4405542;32;20196;-72
2021/11/13 05:09:35;;;;;;;54.47;30.30;;;;;;;;;;4405201;32;19933;-71
2021/11/13 05:12:00;;;;;;;;;;;;;;;;;;4405705;32;20053;-72
2021/11/13 05:14:25;;;;;;;48.47;27.77;;;;;;;;;;4405014;32;19958;-71
2021/11/13 05:16:50;;;;;;;;;;;;;;;;;;4406209;32;20412;-71
2021/11/13 05:19:18;;;;;;;50.65;28.15;;;;;;;;;;4432262;32;19933;-71
2021/11/13 05:21:52;;;;;;;45.17;24.90;;;;;;;;;;4435630;32;20167;-72
2021/11/13 05:24:18;;;;;;;52.00;25.67;;;;;;;;;;4424006;32;20057;-71
2021/11/13 05:26:43;;;;;;;;;;;;;;;;;;4405547;32;20043;-72
2021/11/13 05:29:08;;;;;;;36.05;20.83;;;;;;;;;;4404144;32;20008;-71
2021/11/13 05:31:33;;;;;;;;;;;;;;;;;;4421311;32;20374;-71
2021/11/13 05:34:13;;;;;;;40.75;17.60;;;;;;;;;;4435586;32;19933;-71
2021/11/13 05:36:38;;;;;;;34.63;16.30;;;;;;;;;;4436796;32;20048;-71
2021/11/13 05:39:03;;;;;;;;;;;;;;;;;;4435718;32;20022;-71
2021/11/13 05:44:29;;;;;;;36.80;19.25;;;;;;;;;;4424542;32;20022;-72
2021/11/13 05:46:55;;;;;;;39.13;21.45;;;;;;;;;;4426581;32;20034;-72
2021/11/13 05:49:20;;;;;;;;;;;;;;;;;;4407939;32;20450;-72
2021/11/13 05:51:45;;;;;;;33.00;17.23;;;;;;;;;;4408310;32;19945;-71
2021/11/13 05:54:10;;;;;;;;;;;;;;;;;;4408812;32;20130;-71
2021/11/13 05:56:36;;;;;;;30.08;16.23;;;;;;;;;;4408331;32;19933;-71
2021/11/13 05:59:01;;;;;;;;;;;;;;;;;;4408243;32;20180;-72
2021/11/13 06:01:27;;;;;;;31.83;17.73;;;;;;;;;;4431329;32;19936;-71
2021/11/13 06:03:58;;;;;;;;;;;;;;;;;;4438764;32;20086;-71
2021/11/13 06:06:24;;;;;;;31.70;14.18;;;;;;;;;;4439044;32;19933;-74
2021/11/13 06:08:49;;;;;;;;;;;;;;;;;;4438780;32;20110;-72
2021/11/13 06:11:14;;;;;;;31.65;15.57;;;;;;;;;;4438395;32;19951;-72
2021/11/13 06:13:39;;;;;;;;;;;;;;;;;;4438640;32;20057;-72
2021/11/13 06:16:08;;;;;;;21.98;11.82;;;;;;;;;;4437561;32;19945;-72
2021/11/13 06:18:33;;;;;;;17.08;8.07;;;;;;;;;;4438672;32;20025;-72
2021/11/13 06:20:58;;;;;;;;;;;;;;;;;;4438474;32;20321;-72
2021/11/13 06:23:24;;;;;;;16.50;7.78;;;;;;;;;;4436772;32;19977;-71
2021/11/13 06:25:49;;;;;;;;;;;;;;;;;;4409292;32;20065;-72
2021/11/13 06:28:14;;;;;;;23.73;7.78;;;;;;;;;;4406401;32;19960;-71
2021/11/13 06:30:39;;;;;;;;;;;;;;;;;;4406600;32;20015;-72
2021/11/13 06:33:07;;;;;;;12.80;5.65;;;;;;;;;;4407033;32;19975;-72
2021/11/13 06:35:33;;;;;;;13.10;6.60;;;;;;;;;;4407235;32;20152;-72
2021/11/13 06:37:58;;;;;;;;;;;;;;;;;;4407565;32;20039;-72
2021/11/13 06:43:17;;;;;;;21.67;6.93;;;;;;;;;;4421749;32;20395;-72
2021/11/13 06:45:45;;;;;;;;;;;;;;;;;;4423864;32;20026;-72
2021/11/13 06:48:11;;;;;;;17.05;6.78;;;;;;;;;;4424068;32;19937;-72
2021/11/13 06:53:20;;;;;;;17.30;7.35;;;;;;;;;;4437970;32;20352;-72
2021/11/13 06:55:45;;;;;;;;;;;;;;;;;;4437531;32;20092;-72
2021/11/13 06:58:13;;;;;;;12.25;6.70;;;;;;;;;;4434401;32;19974;-72
2021/11/13 07:00:38;;;;;;;21.85;7.87;;;;;;;;;;4437525;32;20055;-72
2021/11/13 07:03:04;;;;;;;;;;;;;;;;;;4435364;32;20381;-72
2021/11/13 07:05:29;;;;;;;13.57;6.85;;;;;;;;;;4437232;32;19972;-71
2021/11/13 07:08:04;;;;;;;;;;;;;;;;;;;;;
2021/11/13 07:13:48;;;;;;;18.27;9.20;;;;;;;;;;4422242;32;20049;-70
2021/11/13 07:16:36;;;;;;;20.42;9.95;;;;;;;;;;4420848;32;20056;-71
2021/11/13 07:19:03;;;;;;;21.40;9.60;;;;;;;;;;4374455;32;20039;-72
2021/11/13 07:21:47;;;;;;;23.58;9.02;;;;;;;;;;4415049;32;20060;-71
2021/11/13 07:24:13;;;;;;;22.37;8.98;;;;;;;;;;4421830;32;20030;-72
2021/11/13 07:26:40;;;;;;;;;;;;;;;;;;4422288;32;20341;-72
2021/11/13 07:29:08;;;;;;;25.92;10.13;;;;;;;;;;4421718;32;19941;-71
2021/11/13 07:31:37;;;;;;;18.80;10.90;;;;;;;;;;4413242;32;20041;-73
2021/11/13 07:34:02;;;;;;;27.27;11.25;;;;;;;;;;4406714;32;20056;-72
2021/11/13 07:36:30;;;;;;;;;;;;;;;;;;4406923;32;20030;-72
2021/11/13 07:39:18;;;;;;;;;;;;;;;;;;;;;
2021/11/13 07:41:45;;;;;;;30.80;10.98;;;;;;;;;;4407081;32;20014;-72
2021/11/13 07:44:32;;;;;;;30.65;10.60;;;;;;;;;;4406633;32;20022;-72
2021/11/13 07:46:56;;;;;;;39.00;12.00;;;;;;;;;;4406123;32;20446;-72
2021/11/13 07:49:22;;;;;;;;;;;;;;;;;;4407854;32;20038;-73
2021/11/13 07:51:47;;;;;;;23.05;9.75;;;;;;;;;;4406585;32;20334;-73
2021/11/13 07:54:31;;;;;;;26.42;10.00;;;;;;;;;;4404991;32;20022;-72
2021/11/13 07:56:56;;;;;;;22.67;9.15;;;;;;;;;;4427797;32;20021;-72
2021/11/13 08:05:12;;;;;;;25.23;10.20;;;;;;;;;;4406365;32;20075;-73
2021/11/13 08:07:38;;;;;;;24.27;10.75;;;;;;;;;;4419118;32;20034;-73
2021/11/13 08:10:03;;;;;;;;;;;;;;;;;;4406752;32;20048;-73
2021/11/13 08:12:28;;;;;;;20.95;9.57;;;;;;;;;;4421594;32;19998;-73
2021/11/13 08:14:54;;;;;;;;;;;;;;;;;;4410741;32;20480;-73
2021/11/13 08:20:45;;;;;;;31.37;10.90;;;;;;;;;;4429574;32;20454;-72
2021/11/13 08:23:19;;;;;;;25.70;11.93;;;;;;;;;;4410998;32;20095;-72
2021/11/13 08:25:52;;;;;;;20.40;9.77;;;;;;;;;;4421798;32;20013;-72
2021/11/13 08:28:21;;;;;;;15.13;8.77;;;;;;;;;;4407980;32;20045;-72
2021/11/13 08:30:47;;;;;;;20.73;8.77;;;;;;;;;;4413510;32;20416;-72
2021/11/13 08:33:12;;;;;;;;;;;;;;;;;;4406016;32;20045;-72
2021/11/13 08:35:39;;;;;;;26.12;9.68;;;;;;;;;;4405831;32;19934;-72
2021/11/13 08:38:42;;;;;;;18.92;7.97;;;;;;;;;;4410331;32;20179;-72
2021/11/13 08:41:11;;;;;;;22.27;9.88;;;;;;;;;;4405354;32;20087;-72
2021/11/13 08:43:36;;;;;;;17.10;9.52;;;;;;;;;;4406005;32;20470;-73
2021/11/13 08:46:01;;;;;;;;;;;;;;;;;;4425540;32;20025;-72
2021/11/13 08:48:26;;;;;;;18.55;7.65;;;;;;;;;;4407858;32;19933;-72
2021/11/13 08:50:52;;;;;;;;;;;;;;;;;;4406658;32;20358;-72
2021/11/13 08:53:24;;;;;;;20.92;8.15;;;;;;;;;;4405269;32;19949;-74
2021/11/13 08:55:50;;;;;;;20.15;9.35;;;;;;;;;;4416999;32;20100;-71
2021/11/13 08:58:15;;;;;;;;;;;;;;;;;;4420572;32;20034;-73
2021/11/13 09:00:40;;;;;;;17.33;8.25;;;;;;;;;;4418343;32;19957;-73
2021/11/13 09:03:08;;;;;;;;;;;;;;;;;;4405038;32;20293;-73
2021/11/13 09:05:34;;;;;;;21.25;8.38;;;;;;;;;;4405279;32;20297;-73
2021/11/13 09:08:01;;;;;;;;;;;;;;;;;;4405575;32;20058;-73
2021/11/13 09:10:27;;;;;;;13.80;7.50;;;;;;;;;;4407019;32;19981;-73
2021/11/13 09:12:52;;;;;;;;;;;;;;;;;;4403626;32;21084;-74
2021/11/13 09:15:23;;;;;;;17.90;8.95;;;;;;;;;;4404571;32;19972;-73
2021/11/13 09:17:48;;;;;;;21.65;8.35;;;;;;;;;;4409787;32;20022;-73
2021/11/13 09:20:13;;;;;;;;;;;;;;;;;;4406162;32;20049;-72
2021/11/13 09:22:38;;;;;;;17.20;8.02;;;;;;;;;;4406959;32;19934;-73
2021/11/13 09:25:08;;;;;;;;;;;;;;;;;;4410125;32;20455;-72
2021/11/13 09:27:36;;;;;;;16.08;6.50;;;;;;;;;;4407824;32;19960;-73
2021/11/13 09:30:04;;;;;;;15.65;6.57;;;;;;;;;;4407907;32;20057;-72
2021/11/13 09:32:35;;;;;;;16.55;6.95;;;;;;;;;;4408172;32;20416;-72
2021/11/13 09:35:00;;;;;;;21.37;8.52;;;;;;;;;;4408562;32;20048;-72
2021/11/13 09:37:25;;;;;;;;;;;;;;;;;;4415743;32;20025;-72
2021/11/13 09:39:50;;;;;;;12.90;6.00;;;;;;;;;;4439167;32;20325;-72
2021/11/13 09:42:16;;;;;;;;;;;;;;;;;;4439005;32;20093;-72
2021/11/13 09:44:41;;;;;;;15.60;6.47;;;;;;;;;;4439120;32;19933;-73
2021/11/13 09:47:06;;;;;;;;;;;;;;;;;;4408312;32;20471;-72
2021/11/13 09:49:31;;;;;;;9.65;5.78;;;;;;;;;;4410137;32;19949;-71
2021/11/13 09:51:57;;;;;;;;;;;;;;;;;;4415151;32;20239;-73
2021/11/13 09:54:26;;;;;;;10.70;4.47;;;;;;;;;;4420909;32;19941;-73
2021/11/13 09:56:52;;;;;;;10.52;5.20;;;;;;;;;;4419090;32;20041;-73
2021/11/13 09:59:24;;;;;;;;;;;;;;;;;;4408915;32;20022;-74
2021/11/13 10:01:52;;;;;;;14.43;7.28;;;;;;;;;;4408173;32;20399;-73
2021/11/13 10:04:18;;;;;;;14.80;7.00;;;;;;;;;;4393520;32;20461;-73
2021/11/13 10:09:28;;;;;;;11.27;7.55;;;;;;;;;;4407659;32;20328;-73
2021/11/13 10:11:56;;;;;;;20.37;9.80;;;;;;;;;;4407646;32;20034;-73
2021/11/13 10:14:35;;;;;;;16.50;9.48;;;;;;;;;;4407067;32;20052;-73
2021/11/13 10:17:00;;;;;;;19.10;9.02;;;;;;;;;;4407406;32;20118;-73
2021/11/13 10:19:28;;;;;;;;;;;;;;;;;;4407944;32;20019;-73
2021/11/13 10:22:07;;;;;;;11.75;5.28;;;;;;;;;;4407682;32;20256;-73
2021/11/13 10:24:32;;;;;;;10.98;6.25;;;;;;;;;;4407901;32;20003;-73
2021/11/13 10:26:57;;;;;;;;;;;;;;;;;;4408558;32;20057;-73
2021/11/13 10:36:09;;;;;;;10.23;5.15;;;;;;;;;;4345111;32;20069;-72
2021/11/13 10:38:59;;;;;;;15.35;5.62;;;;;;;;;;4422666;32;20449;-73
2021/11/13 10:41:24;;;;;;;12.55;5.93;;;;;;;;;;4422355;32;20463;-73
2021/11/13 10:43:50;;;;;;;;;;;;;;;;;;4423957;32;20095;-73
2021/11/13 10:46:33;;;;;;;15.85;7.12;;;;;;;;;;4415150;32;19976;-73
2021/11/13 10:49:01;;;;;;;19.30;8.63;;;;;;;;;;4407641;32;20411;-73
2021/11/13 10:51:29;;;;;;;10.25;6.62;;;;;;;;;;4405632;32;20035;-73
2021/11/13 10:53:54;;;;;;;26.87;9.02;;;;;;;;;;4413095;32;20049;-72
2021/11/13 10:56:19;;;;;;;;;;;;;;;;;;4421253;32;20026;-72
2021/11/13 10:58:52;;;;;;;13.68;4.18;;;;;;;;;;4421284;32;20020;-71
2021/11/13 11:01:28;;;;;;;11.57;5.22;;;;;;;;;;4422329;32;20025;-72
2021/11/13 11:03:57;;;;;;;8.68;3.30;;;;;;;;;;4421120;32;20140;-72
2021/11/13 11:06:30;;;;;;;10.02;4.30;;;;;;;;;;4407020;32;20407;-72
2021/11/13 11:08:55;;;;;;;8.73;2.60;;;;;;;;;;4407871;32;20064;-72
2021/11/13 11:11:29;;;;;;;;;;;;;;;;;;4406834;32;20313;-72
2021/11/13 11:13:55;;;;;;;13.98;2.80;;;;;;;;;;4413987;32;19937;-72
2021/11/13 11:16:44;;;;;;;8.93;2.97;;;;;;;;;;4437112;32;20125;-72
2021/11/13 11:19:31;;;;;;;7.18;3.30;;;;;;;;;;4436426;32;20052;-72
2021/11/13 11:21:56;;;;;;;;;;;;;;;;;;4437044;32;20030;-72
2021/11/13 11:24:26;;;;;;;9.82;3.45;;;;;;;;;;4436846;32;19937;-71
2021/11/13 11:26:53;;;;;;;6.30;2.60;;;;;;;;;;4437532;32;20051;-72
2021/11/13 11:29:18;;;;;;;5.15;2.40;;;;;;;;;;4434217;32;20026;-73
2021/11/13 11:32:07;;;;;;;;;;;;;;;;;;4431672;32;20034;-72
2021/11/13 11:34:52;;;;;;;10.82;2.47;;;;;;;;;;4405347;32;19947;-72
2021/11/13 11:37:25;;;;;;;7.93;2.42;;;;;;;;;;4379071;32;20103;-72
2021/11/13 11:39:55;;;;;;;7.35;2.60;;;;;;;;;;4436607;32;20080;-72
2021/11/13 11:42:21;;;;;;;8.82;1.85;;;;;;;;;;4436415;32;20060;-70
2021/11/13 11:44:47;;;;;;;11.52;2.90;;;;;;;;;;4433132;32;20044;-71
2021/11/13 11:47:14;;;;;;;9.57;2.17;;;;;;;;;;4418361;32;20037;-69
2021/11/13 11:50:05;;;;;;;6.65;3.22;;;;;;;;;;4421589;32;20131;-72
2021/11/13 11:52:31;;;;;;;10.13;3.00;;;;;;;;;;4409222;32;20108;-69
2021/11/13 11:54:57;;;;;;;7.95;2.22;;;;;;;;;;4422851;32;20408;-72
2021/11/13 11:57:25;;;;;;;8.00;2.45;;;;;;;;;;4436286;32;20094;-71
2021/11/13 11:59:53;;;;;;;6.72;2.17;;;;;;;;;;4430818;32;20470;-72
2021/11/13 12:02:20;;;;;;;5.70;1.92;;;;;;;;;;4421600;32;20056;-71
2021/11/13 12:04:47;;;;;;;6.97;1.80;;;;;;;;;;4406840;32;20034;-72
2021/11/13 12:07:34;;;;;;;6.00;1.85;;;;;;;;;;4404899;32;20328;-71
2021/11/13 12:10:14;;;;;;;2.78;1.87;;;;;;;;;;4417832;32;20098;-72
2021/11/13 12:12:43;;;;;;;5.00;2.17;;;;;;;;;;4405315;32;20572;-73
2021/11/13 12:15:16;;;;;;;4.65;2.00;;;;;;;;;;4414467;32;20483;-71
2021/11/13 12:17:44;;;;;;;5.40;2.17;;;;;;;;;;4397897;32;20037;-71
2021/11/13 12:20:28;;;;;;;;;;;;;;;;;;;;;
2021/11/13 12:22:58;;;;;;;4.40;1.50;;;;;;;;;;4412073;32;20052;-72
2021/11/13 12:25:30;;;;;;;6.97;2.00;;;;;;;;;;4417299;32;20094;-72
2021/11/13 12:28:21;;;;;;;3.20;1.35;;;;;;;;;;4420390;32;20067;-71
2021/11/13 12:30:46;;;;;;;4.60;1.50;;;;;;;;;;4408090;32;20119;-72
2021/11/13 12:33:24;;;;;;;2.87;1.42;;;;;;;;;;4406287;32;20435;-73
2021/11/13 12:36:16;;;;;;;5.87;2.05;;;;;;;;;;4405704;32;20027;-73
2021/11/13 12:38:58;;;;;;;3.33;1.55;;;;;;;;;;4399019;32;20018;-72
2021/11/13 12:41:27;;;;;;;4.25;1.85;;;;;;;;;;4406159;32;20026;-72
2021/11/13 12:46:27;;;;;;;5.82;1.80;;;;;;;;;;4405760;32;20019;-73
2021/11/13 12:49:14;;;;;;;5.10;2.22;;;;;;;;;;4410736;32;20037;-73
2021/11/13 12:51:39;;;;;;;;;;;;;;;;;;4421237;32;20367;-72
2021/11/13 12:54:44;;;;;;;;;;;;;;;;;;;;;
2021/11/13 12:57:14;;;;;;;4.85;2.17;;;;;;;;;;4413321;32;20038;-70
2021/11/13 13:00:00;;;;;;;4.78;1.75;;;;;;;;;;4422371;32;20392;-71
2021/11/13 13:02:26;;;;;;;2.67;1.90;;;;;;;;;;4430479;32;20046;-71
2021/11/13 13:04:55;;;;;;;2.00;1.45;;;;;;;;;;4420125;32;20098;-72
2021/11/13 13:07:31;;;;;;;;;;;;;;;;;;;;;
2021/11/13 13:10:03;;;;;;;2.53;1.50;;;;;;;;;;4411742;32;20353;-72
2021/11/13 13:12:29;;;;;;;3.03;1.50;;;;;;;;;;4433612;32;20073;-71
2021/11/13 13:15:16;;;;;;;3.97;1.65;;;;;;;;;;4391463;32;20408;-73
2021/11/13 13:17:50;;;;;;;3.60;1.83;;;;;;;;;;4391385;32;20026;-71
2021/11/13 13:20:33;;;;;;;3.87;1.95;;;;;;;;;;4406166;32;20096;-71
2021/11/13 13:23:00;;;;;;;5.60;2.00;;;;;;;;;;4417266;32;20034;-69
2021/11/13 13:25:33;;;;;;;4.47;2.30;;;;;;;;;;4418016;32;20025;-71
2021/11/13 13:28:02;;;;;;;5.43;2.17;;;;;;;;;;4405732;32;20329;-72
2021/11/13 13:30:28;;;;;;;4.82;2.50;;;;;;;;;;4419928;32;20038;-72
2021/11/13 13:32:54;;;;;;;;;;;;;;;;;;4420493;32;20404;-72
2021/11/13 13:35:23;;;;;;;7.00;3.03;;;;;;;;;;4420158;32;19955;-71
2021/11/13 13:38:01;;;;;;;6.95;3.25;;;;;;;;;;4418545;32;20445;-71
2021/11/13 13:40:28;;;;;;;6.15;3.10;;;;;;;;;;4418750;32;20042;-71
2021/11/13 13:43:41;;;;;;;3.62;2.33;;;;;;;;;;4419587;32;20079;-71
2021/11/13 13:45:46;;;;;;;5.70;3.33;;;;;;;;;;4411911;32;20091;-71
2021/11/13 13:48:21;;;;;;;6.85;2.47;;;;;;;;;;4420382;32;20021;-71
2021/11/13 13:50:50;;;;;;;7.53;2.95;;;;;;;;;;4419599;32;20087;-72
2021/11/13 13:53:36;;;;;;;4.75;3.15;;;;;;;;;;4416444;32;20034;-71
2021/11/13 13:56:31;;;;;;;6.80;2.72;;;;;;;;;;4342703;33;20437;-72
2021/11/13 13:58:58;;;;;;;7.47;2.65;;;;;;;;;;4420433;32;20076;-72
2021/11/13 14:01:24;;;;;;;4.97;2.85;;;;;;;;;;4419722;32;20034;-71
2021/11/13 14:04:17;;;;;;;;;;;;;;;;;;4420772;32;20087;-71
2021/11/13 14:10:07;;;;;;;5.12;2.40;;;;;;;;;;4349783;32;20098;-71
2021/11/13 14:12:47;;;;;;;4.50;2.40;;;;;;;;;;4393788;32;20049;-71
2021/11/13 14:15:27;;;;;;;6.00;2.75;;;;;;;;;;4407970;32;20031;-71
2021/11/13 14:18:03;;;;;;;3.60;1.87;;;;;;;;;;4408001;32;20110;-72
2021/11/13 14:20:30;;;;;;;6.25;2.72;;;;;;;;;;4408064;32;20034;-71
2021/11/13 14:23:14;;;;;;;4.93;2.22;;;;;;;;;;4407563;32;20046;-71
2021/11/13 14:25:50;;;;;;;7.55;2.22;;;;;;;;;;4407059;32;20083;-71
2021/11/13 14:28:38;;;;;;;4.72;2.00;;;;;;;;;;4419815;32;20074;-71
2021/11/13 14:31:12;;;;;;;8.30;3.10;;;;;;;;;;4422220;32;20083;-71
2021/11/13 14:33:44;;;;;;;5.78;2.50;;;;;;;;;;4435672;32;20048;-71
2021/11/13 14:36:09;;;;;;;5.50;2.45;;;;;;;;;;4432611;32;20130;-72
2021/11/13 14:38:35;;;;;;;;;;;;;;;;;;4423135;32;20021;-71
2021/11/13 14:41:08;;;;;;;4.37;2.92;;;;;;;;;;4421486;32;19985;-71
2021/11/13 14:43:35;;;;;;;7.95;3.62;;;;;;;;;;4421733;32;20033;-72
2021/11/13 14:46:19;;;;;;;6.25;2.50;;;;;;;;;;4421730;32;20073;-71
2021/11/13 14:49:07;;;;;;;6.97;3.53;;;;;;;;;;4437714;32;20067;-72
2021/11/13 14:51:54;;;;;;;8.18;3.62;;;;;;;;;;4437829;32;20060;-71
2021/11/13 14:54:27;;;;;;;5.78;3.08;;;;;;;;;;4425416;32;20057;-72
2021/11/13 14:59:55;;;;;;;7.82;3.00;;;;;;;;;;4422391;32;20060;-72
2021/11/13 15:02:20;;;;;;;;;;;;;;;;;;4418670;32;20034;-71
2021/11/13 15:04:56;;;;;;;8.05;3.55;;;;;;;;;;4406825;32;19942;-72
2021/11/13 15:07:25;;;;;;;6.12;3.67;;;;;;;;;;4407526;32;20134;-71
2021/11/13 15:10:41;;;;;;;5.30;3.58;;;;;;;;;;4410740;32;20025;-71
2021/11/13 15:12:40;;;;;;;9.85;4.03;;;;;;;;;;4404747;32;20466;-71
2021/11/13 15:15:12;;;;;;;;;;;;;;;;;;4421940;32;20021;-71
2021/11/13 15:17:39;;;;;;;4.72;2.55;;;;;;;;;;4423679;32;19981;-72
2021/11/13 15:20:10;;;;;;;4.97;3.30;;;;;;;;;;4421885;32;20056;-71
2021/11/13 15:23:15;;;;;;;7.07;3.75;;;;;;;;;;4414824;32;20072;-71
2021/11/13 15:25:44;;;;;;;6.35;3.75;;;;;;;;;;4343544;32;20063;-71
2021/11/13 15:28:10;;;;;;;5.20;3.12;;;;;;;;;;4364799;32;20079;-71
2021/11/13 15:30:35;;;;;;;;;;;;;;;;;;4413898;32;20042;-70
2021/11/13 15:33:00;;;;;;;10.10;4.03;;;;;;;;;;4422298;32;19948;-71
2021/11/13 15:35:28;;;;;;;7.82;3.78;;;;;;;;;;4408013;32;20456;-71
2021/11/13 15:37:57;;;;;;;8.55;3.87;;;;;;;;;;4421520;32;20034;-71
2021/11/13 15:40:25;;;;;;;8.73;4.25;;;;;;;;;;4421657;32;20021;-72
2021/11/13 15:42:53;;;;;;;8.68;4.30;;;;;;;;;;4421917;32;20061;-71
2021/11/13 15:45:26;;;;;;;6.57;4.25;;;;;;;;;;4425227;32;20026;-72
2021/11/13 15:48:04;;;;;;;12.55;4.22;;;;;;;;;;4437414;32;20022;-72
2021/11/13 15:50:54;;;;;;;9.70;4.62;;;;;;;;;;4425692;32;20052;-70
2021/11/13 15:53:32;;;;;;;13.57;4.27;;;;;;;;;;4417578;32;20097;-71
2021/11/13 15:55:57;;;;;;;11.57;5.05;;;;;;;;;;4405376;32;20122;-71
2021/11/13 15:58:22;;;;;;;;;;;;;;;;;;4415350;32;20084;-71
2021/11/13 16:00:50;;;;;;;11.23;4.53;;;;;;;;;;4409980;32;19937;-71
2021/11/13 16:03:31;;;;;;;15.13;4.10;;;;;;;;;;4405941;32;20134;-71
2021/11/13 16:05:56;;;;;;;14.63;4.62;;;;;;;;;;4407707;32;20030;-70
2021/11/13 16:08:26;;;;;;;;;;;;;;;;;;4421305;32;20096;-71
2021/11/13 16:10:51;;;;;;;8.65;4.45;;;;;;;;;;4420042;32;20351;-71
2021/11/13 16:16:11;;;;;;;16.70;5.00;;;;;;;;;;4421317;32;20024;-70
2021/11/13 16:18:49;;;;;;;11.73;4.03;;;;;;;;;;4421498;32;20029;-72
2021/11/13 16:21:26;;;;;;;15.18;5.32;;;;;;;;;;4413571;32;20045;-71
2021/11/13 16:24:02;;;;;;;17.30;6.80;;;;;;;;;;4405682;32;20339;-71
2021/11/13 16:26:36;;;;;;;25.15;9.93;;;;;;;;;;4406533;32;20045;-71
2021/11/13 16:29:28;;;;;;;16.55;8.27;;;;;;;;;;4405075;32;20413;-71
2021/11/13 16:31:56;;;;;;;16.55;5.97;;;;;;;;;;4398664;32;20034;-71